Time;durP1;ratioP1;P1;durP2;ratioP2;P2;SDS_P1;SDS_P2;PMS_P1;PMS_P2;Temp;Humidity;BMP_temperature;BMP_pressure;BME280_temperature;BME280_humidity;BME280_pressure;Samples;Min_cycle;Max_cycle;Signal;HPM_P1;HPM_P2
2021/12/07 00:00:49;;;;;;;37.27;17.73;;;1.00;99.90;;;;;;6142262;23;20028;-79
2021/12/07 00:03:15;;;;;;;35.92;17.58;;;1.00;99.90;;;;;;6142724;23;20528;-79
2021/12/07 00:05:41;;;;;;;32.70;16.73;;;1.00;99.90;;;;;;6143240;23;20056;-79
2021/12/07 00:08:07;;;;;;;34.03;17.02;;;1.10;99.90;;;;;;6142266;23;20079;-79
2021/12/07 00:10:33;;;;;;;36.20;16.83;;;1.00;99.90;;;;;;6142048;23;20032;-79
2021/12/07 00:12:59;;;;;;;36.87;16.90;;;1.00;99.90;;;;;;6167127;23;20013;-79
2021/12/07 00:15:25;;;;;;;32.70;15.83;;;0.90;99.90;;;;;;6167213;23;20240;-79
2021/12/07 00:17:52;;;;;;;33.55;16.67;;;1.00;99.90;;;;;;6167593;23;20013;-79
2021/12/07 00:20:20;;;;;;;34.05;16.63;;;0.90;99.90;;;;;;6190713;23;20361;-79
2021/12/07 00:22:49;;;;;;;36.65;16.70;;;0.90;99.90;;;;;;6188578;23;20028;-79
2021/12/07 00:25:15;;;;;;;31.38;16.00;;;0.90;99.90;;;;;;6188960;23;20040;-79
2021/12/07 00:27:41;;;;;;;33.30;15.32;;;0.90;99.90;;;;;;6189694;23;20027;-79
2021/12/07 00:30:09;;;;;;;36.03;16.37;;;0.90;99.90;;;;;;6164902;23;20076;-79
2021/12/07 00:32:40;;;;;;;31.27;15.18;;;0.90;99.90;;;;;;6167328;23;20017;-79
2021/12/07 00:37:47;;;;;;;32.03;15.65;;;0.80;99.90;;;;;;6192801;23;20021;-79
2021/12/07 00:40:17;;;;;;;25.15;12.93;;;0.70;99.90;;;;;;6191915;23;20024;-79
2021/12/07 00:42:43;;;;;;;24.63;13.77;;;0.80;99.90;;;;;;6193207;23;20021;-79
2021/12/07 00:45:10;;;;;;;27.40;13.48;;;0.80;99.90;;;;;;6190617;23;20020;-79
2021/12/07 00:47:36;;;;;;;29.00;13.80;;;0.80;99.90;;;;;;6190875;23;20028;-79
2021/12/07 00:50:04;;;;;;;24.53;13.20;;;0.80;99.90;;;;;;6194032;23;20533;-79
2021/12/07 00:52:29;;;;;;;28.02;13.68;;;0.80;99.90;;;;;;6191663;23;20009;-79
2021/12/07 00:54:55;;;;;;;21.80;12.13;;;0.80;99.90;;;;;;6163941;23;20019;-79
2021/12/07 00:57:21;;;;;;;24.80;12.53;;;0.80;99.90;;;;;;6144978;23;20061;-79
2021/12/07 00:59:47;;;;;;;20.90;11.70;;;0.80;99.90;;;;;;6143159;23;20495;-79
2021/12/07 01:02:13;;;;;;;24.70;12.80;;;0.80;99.90;;;;;;6168327;23;20025;-79
2021/12/07 01:04:39;;;;;;;25.87;12.27;;;0.70;99.90;;;;;;6192890;23;20020;-79
2021/12/07 01:07:13;;;;;;;29.02;12.98;;;0.70;99.90;;;;;;6144756;23;20074;-79
2021/12/07 01:24:39;;;;;;;25.40;12.48;;;0.80;99.90;;;;;;6193852;23;20017;-79
2021/12/07 01:26:08;;;;;;;24.02;12.93;;;0.80;99.90;;;;;;6172203;23;20031;-79
2021/12/07 01:28:39;;;;;;;24.73;13.17;;;0.80;99.90;;;;;;6144581;23;20056;-79
2021/12/07 01:31:25;;;;;;;28.13;13.43;;;0.80;99.90;;;;;;6168575;23;20316;-79
2021/12/07 01:34:26;;;;;;;;;;;0.80;99.90;;;;;;6191360;23;20008;-79
2021/12/07 01:46:38;;;;;;;25.88;13.65;;;0.90;99.90;;;;;;6168499;23;20024;-79
2021/12/07 01:51:20;;;;;;;28.92;14.07;;;0.90;99.90;;;;;;6167760;23;20021;-78
2021/12/07 01:59:34;;;;;;;27.83;13.98;;;0.90;99.90;;;;;;6189471;23;20449;-79
2021/12/07 02:02:15;;;;;;;28.98;14.27;;;0.80;99.90;;;;;;6167428;23;20366;-78
2021/12/07 02:04:40;;;;;;;28.98;14.10;;;0.80;99.90;;;;;;6188913;23;20032;-78
2021/12/07 02:07:07;;;;;;;28.03;13.50;;;0.80;99.90;;;;;;6162991;23;20025;-79
2021/12/07 02:09:35;;;;;;;25.77;13.30;;;0.80;99.90;;;;;;6162920;23;20021;-79
2021/12/07 02:12:02;;;;;;;31.92;14.90;;;0.90;99.90;;;;;;6189620;23;20013;-79
2021/12/07 02:14:30;;;;;;;26.92;14.32;;;0.90;99.90;;;;;;6140555;23;20020;-79
2021/12/07 02:17:04;;;;;;;36.30;14.85;;;0.90;99.90;;;;;;6139300;23;20009;-79
2021/12/07 02:19:30;;;;;;;27.83;14.15;;;1.00;99.90;;;;;;6190363;23;20016;-79
2021/12/07 02:21:57;;;;;;;28.23;13.43;;;1.10;99.90;;;;;;6141226;23;20040;-79
2021/12/07 02:24:24;;;;;;;29.63;14.82;;;1.10;99.90;;;;;;6166621;23;20040;-79
2021/12/07 02:26:50;;;;;;;31.95;15.32;;;1.10;99.90;;;;;;6141325;23;20013;-79
2021/12/07 02:29:17;;;;;;;31.00;14.23;;;1.20;99.90;;;;;;6189633;23;20013;-78
2021/12/07 02:31:43;;;;;;;32.53;15.55;;;1.30;99.90;;;;;;6164654;23;20430;-78
2021/12/07 02:34:10;;;;;;;35.30;16.00;;;1.20;99.90;;;;;;6141258;23;20017;-78
2021/12/07 02:36:36;;;;;;;30.92;14.82;;;1.30;99.90;;;;;;6137473;23;20012;-78
2021/12/07 02:39:08;;;;;;;31.63;14.23;;;1.40;99.90;;;;;;6187798;23;20115;-78
2021/12/07 02:41:34;;;;;;;38.97;16.55;;;1.40;99.90;;;;;;6189138;23;20012;-78
2021/12/07 02:44:00;;;;;;;35.60;15.63;;;1.40;99.90;;;;;;6163764;23;20013;-78
2021/12/07 02:46:26;;;;;;;34.70;14.90;;;1.30;99.90;;;;;;6137877;23;20397;-78
2021/12/07 02:48:51;;;;;;;29.73;13.93;;;1.30;99.90;;;;;;6186909;23;20462;-78
2021/12/07 02:51:17;;;;;;;32.27;14.57;;;1.30;99.90;;;;;;6187766;23;20075;-78
2021/12/07 02:53:43;;;;;;;34.40;14.73;;;1.30;99.90;;;;;;6140244;23;20259;-78
2021/12/07 02:56:09;;;;;;;28.23;14.68;;;1.20;99.90;;;;;;6164159;23;20441;-79
2021/12/07 02:58:37;;;;;;;32.38;14.07;;;1.20;99.90;;;;;;6190440;23;20021;-79
2021/12/07 03:01:12;;;;;;;36.15;14.98;;;1.20;99.90;;;;;;6188169;23;20104;-79
2021/12/07 03:03:43;;;;;;;30.52;13.57;;;1.20;99.90;;;;;;6188954;23;20021;-79
2021/12/07 03:27:38;;;;;;;41.30;14.80;;;1.80;99.90;;;;;;6168937;23;20078;-79
2021/12/07 03:30:05;;;;;;;37.87;14.10;;;1.90;99.90;;;;;;6139958;23;20013;-79
2021/12/07 03:32:31;;;;;;;33.70;12.95;;;1.90;99.90;;;;;;6139690;23;20395;-79
2021/12/07 03:34:56;;;;;;;28.93;12.03;;;1.90;99.90;;;;;;6189652;23;20016;-79
2021/12/07 03:37:22;;;;;;;29.73;11.03;;;1.90;99.90;;;;;;6164497;23;20036;-79
2021/12/07 03:39:48;;;;;;;33.00;12.17;;;2.10;99.90;;;;;;6140942;23;20017;-79
2021/12/07 03:42:14;;;;;;;35.30;12.00;;;2.10;99.90;;;;;;6165505;23;20080;-79
2021/12/07 03:44:40;;;;;;;25.60;9.85;;;2.10;99.90;;;;;;6189272;23;20020;-79
2021/12/07 03:47:06;;;;;;;28.33;9.37;;;2.10;99.90;;;;;;6187495;23;20021;-79
2021/12/07 03:49:32;;;;;;;23.60;8.40;;;2.10;99.90;;;;;;6164072;23;20032;-79
2021/12/07 03:51:57;;;;;;;20.20;8.97;;;2.20;99.90;;;;;;6164264;23;20075;-79
2021/12/07 03:54:23;;;;;;;24.93;9.47;;;2.20;99.90;;;;;;6190602;23;20016;-79
2021/12/07 03:56:49;;;;;;;23.10;9.20;;;2.20;99.90;;;;;;6164698;23;20096;-79
2021/12/07 03:59:14;;;;;;;22.83;9.17;;;2.20;99.90;;;;;;6140619;23;20017;-79
2021/12/07 04:01:40;;;;;;;23.80;9.40;;;2.20;99.90;;;;;;6163576;23;20028;-79
2021/12/07 04:04:06;;;;;;;30.00;9.53;;;2.20;99.90;;;;;;6138477;23;20078;-79
2021/12/07 04:06:32;;;;;;;19.00;7.80;;;2.30;99.90;;;;;;6162918;23;20013;-79
2021/12/07 04:08:58;;;;;;;18.23;7.70;;;2.30;99.90;;;;;;6164236;23;20240;-79
2021/12/07 04:11:24;;;;;;;17.17;6.63;;;2.30;99.90;;;;;;6190263;23;20097;-79
2021/12/07 04:13:50;;;;;;;22.27;6.50;;;2.40;99.90;;;;;;6166839;23;20013;-79
2021/12/07 04:16:17;;;;;;;15.80;4.13;;;2.50;99.90;;;;;;6164747;23;20442;-79
2021/12/07 04:18:43;;;;;;;9.75;2.80;;;2.50;99.90;;;;;;6164508;23;20065;-79
2021/12/07 04:21:09;;;;;;;12.02;3.00;;;2.50;99.90;;;;;;6164562;23;20092;-79
2021/12/07 04:23:36;;;;;;;16.60;2.97;;;2.50;99.90;;;;;;6188571;23;20021;-79
2021/12/07 04:26:04;;;;;;;10.55;3.22;;;2.50;99.90;;;;;;6165567;23;20075;-79
2021/12/07 04:28:30;;;;;;;13.45;3.78;;;2.50;99.90;;;;;;6190817;23;20016;-79
2021/12/07 04:30:56;;;;;;;13.93;3.47;;;2.50;99.90;;;;;;6189910;23;20017;-79
2021/12/07 04:33:22;;;;;;;13.27;4.10;;;2.60;99.90;;;;;;6166238;23;20013;-79
2021/12/07 04:35:50;;;;;;;12.90;3.67;;;2.60;99.90;;;;;;6141829;23;20023;-79
2021/12/07 04:38:17;;;;;;;17.00;4.63;;;2.60;99.90;;;;;;6192282;23;20461;-79
2021/12/07 04:40:44;;;;;;;13.35;4.03;;;2.60;99.90;;;;;;6165436;23;20021;-79
2021/12/07 04:43:10;;;;;;;14.45;3.75;;;2.60;99.90;;;;;;6166153;23;20017;-79
2021/12/07 04:45:51;;;;;;;17.35;4.30;;;2.60;99.90;;;;;;6191676;23;20021;-79
2021/12/07 04:59:12;;;;;;;13.65;2.42;;;2.50;99.90;;;;;;6192728;23;20489;-80
2021/12/07 05:01:38;;;;;;;12.80;2.25;;;2.50;99.90;;;;;;6191808;23;20013;-80
2021/12/07 05:04:16;;;;;;;7.28;2.22;;;2.50;99.90;;;;;;6191601;23;20017;-80
2021/12/07 05:06:48;;;;;;;8.48;2.13;;;2.40;99.90;;;;;;6145022;23;20017;-80
2021/12/07 05:12:17;;;;;;;8.65;1.90;;;2.30;99.90;;;;;;6191819;23;20028;-80
2021/12/07 05:14:42;;;;;;;13.45;2.00;;;2.30;99.90;;;;;;6171324;23;20454;-79
2021/12/07 05:17:54;;;;;;;11.82;1.58;;;2.30;99.90;;;;;;6192597;23;20031;-79
2021/12/07 05:24:01;;;;;;;8.98;1.98;;;2.30;99.90;;;;;;6172111;23;20649;-79
2021/12/07 05:39:42;;;;;;;22.13;5.97;;;2.00;99.90;;;;;;6170637;23;20052;-79
2021/12/07 05:42:08;;;;;;;19.00;6.32;;;2.00;99.90;;;;;;6167234;23;20017;-79
2021/12/07 05:44:33;;;;;;;26.40;8.03;;;1.90;99.90;;;;;;6167462;23;20028;-79
2021/12/07 05:46:59;;;;;;;20.13;7.57;;;1.80;99.90;;;;;;6168191;23;20016;-79
2021/12/07 05:49:25;;;;;;;22.67;7.87;;;1.80;99.90;;;;;;6166908;23;20017;-79
2021/12/07 05:51:51;;;;;;;24.73;7.73;;;1.70;99.90;;;;;;6168419;23;20017;-79
2021/12/07 05:54:17;;;;;;;21.43;6.77;;;1.70;99.90;;;;;;6168468;23;20024;-79
2021/12/07 05:56:42;;;;;;;19.57;6.77;;;1.70;99.90;;;;;;6167519;23;20017;-79
2021/12/07 05:59:08;;;;;;;19.73;6.70;;;1.70;99.90;;;;;;6168562;23;20013;-79
2021/12/07 06:01:34;;;;;;;21.77;6.03;;;1.80;99.90;;;;;;6193159;23;20441;-79
2021/12/07 06:04:00;;;;;;;19.90;6.23;;;1.70;99.90;;;;;;6166607;23;20013;-79
2021/12/07 06:06:26;;;;;;;18.67;4.50;;;1.80;99.90;;;;;;6166925;23;20095;-79
2021/12/07 06:08:51;;;;;;;16.50;4.70;;;1.80;99.90;;;;;;6192056;23;20019;-79
2021/12/07 06:11:18;;;;;;;12.57;3.90;;;1.80;99.90;;;;;;6169046;23;20017;-79
2021/12/07 06:13:44;;;;;;;13.73;2.85;;;1.80;99.90;;;;;;6167912;23;20016;-79
2021/12/07 06:16:10;;;;;;;12.03;2.27;;;1.90;99.90;;;;;;6166575;23;20438;-79
2021/12/07 06:18:36;;;;;;;11.83;2.03;;;1.90;99.90;;;;;;6194005;23;20036;-79
2021/12/07 06:21:02;;;;;;;11.23;2.55;;;1.90;99.90;;;;;;6142672;23;20135;-81
2021/12/07 06:23:28;;;;;;;13.27;2.38;;;1.90;99.90;;;;;;6142068;23;20016;-80
2021/12/07 06:25:56;;;;;;;10.13;2.20;;;1.80;99.90;;;;;;6166112;23;20016;-80
2021/12/07 06:28:22;;;;;;;11.50;2.20;;;1.80;99.90;;;;;;6191769;23;20044;-80
2021/12/07 06:30:48;;;;;;;18.40;2.43;;;1.80;99.90;;;;;;6167836;23;20021;-79
2021/12/07 06:33:16;;;;;;;13.55;2.35;;;1.70;99.90;;;;;;6166252;23;20017;-79
2021/12/07 06:35:43;;;;;;;15.45;2.30;;;1.80;99.90;;;;;;6192515;23;20013;-79
2021/12/07 06:38:09;;;;;;;11.38;2.40;;;1.70;99.90;;;;;;6168197;23;20017;-79
2021/12/07 06:40:35;;;;;;;13.63;2.13;;;1.70;99.90;;;;;;6167744;23;20027;-79
2021/12/07 06:43:01;;;;;;;11.50;2.13;;;1.70;99.90;;;;;;6143048;23;20450;-79
2021/12/07 06:45:29;;;;;;;13.48;1.92;;;1.60;99.90;;;;;;6142417;23;20251;-79
2021/12/07 06:47:55;;;;;;;9.05;1.88;;;1.70;99.90;;;;;;6191194;23;20017;-79
2021/12/07 06:50:22;;;;;;;10.23;1.67;;;1.70;99.90;;;;;;6168022;23;20024;-79
2021/12/07 06:52:47;;;;;;;11.27;2.10;;;1.70;99.90;;;;;;6167511;23;20088;-79
2021/12/07 06:55:13;;;;;;;10.00;1.60;;;1.70;99.90;;;;;;6192686;23;20071;-79
2021/12/07 06:57:39;;;;;;;14.13;1.50;;;1.80;99.90;;;;;;6193027;23;20020;-79
2021/12/07 07:00:08;;;;;;;7.57;1.70;;;1.80;99.90;;;;;;6168441;23;20462;-79
2021/12/07 07:02:34;;;;;;;12.85;1.40;;;1.80;99.90;;;;;;6192079;23;20035;-79
2021/12/07 07:04:59;;;;;;;12.30;1.83;;;1.80;99.90;;;;;;6165683;23;20017;-79
2021/12/07 07:07:25;;;;;;;17.73;1.70;;;1.80;99.90;;;;;;6166289;23;20047;-79
2021/12/07 07:09:51;;;;;;;11.07;1.80;;;1.90;99.90;;;;;;6165347;23;20071;-79
2021/12/07 07:12:18;;;;;;;7.50;1.55;;;1.80;99.90;;;;;;6162885;23;20316;-79
2021/12/07 07:14:44;;;;;;;9.13;1.50;;;1.70;99.90;;;;;;6162720;23;20026;-79
2021/12/07 07:17:10;;;;;;;9.88;1.80;;;1.70;99.90;;;;;;6163772;23;20217;-79
2021/12/07 07:19:35;;;;;;;10.27;2.10;;;1.70;99.90;;;;;;6140204;23;20027;-79
2021/12/07 07:22:02;;;;;;;12.10;1.60;;;1.70;99.90;;;;;;6165788;23;20251;-79
2021/12/07 07:24:29;;;;;;;10.45;2.33;;;1.60;99.90;;;;;;6164373;23;20017;-79
2021/12/07 07:26:56;;;;;;;8.52;1.85;;;1.60;99.90;;;;;;6189132;23;20342;-79
2021/12/07 07:29:22;;;;;;;12.07;1.83;;;1.60;99.90;;;;;;6188566;23;20009;-79
2021/12/07 07:31:47;;;;;;;18.57;2.73;;;1.60;99.90;;;;;;6138865;23;20020;-79
2021/12/07 07:34:13;;;;;;;13.10;1.80;;;1.50;99.90;;;;;;6165202;23;20024;-79
2021/12/07 07:36:39;;;;;;;11.25;2.03;;;1.50;99.90;;;;;;6165888;23;20009;-79
2021/12/07 07:39:05;;;;;;;10.70;1.80;;;1.60;99.90;;;;;;6164470;23;20069;-80
2021/12/07 07:41:31;;;;;;;16.63;2.37;;;1.60;99.90;;;;;;6159954;23;20052;-80
2021/12/07 07:43:57;;;;;;;9.53;2.23;;;1.70;99.90;;;;;;6164385;23;20050;-80
2021/12/07 07:46:22;;;;;;;10.37;1.87;;;1.70;99.90;;;;;;6142078;23;20240;-80
2021/12/07 07:48:48;;;;;;;14.67;2.47;;;1.80;99.90;;;;;;6167192;23;20027;-80
2021/12/07 07:51:14;;;;;;;12.67;2.20;;;1.80;99.90;;;;;;6166511;23;20342;-80
2021/12/07 07:53:41;;;;;;;17.55;3.80;;;1.80;99.90;;;;;;6190525;23;20028;-80
2021/12/07 07:56:07;;;;;;;15.57;2.80;;;1.80;99.90;;;;;;6189001;23;20010;-80
2021/12/07 07:58:33;;;;;;;18.70;2.53;;;1.80;99.90;;;;;;6189977;23;20560;-80
2021/12/07 08:00:59;;;;;;;13.60;2.97;;;1.90;99.90;;;;;;6166317;23;20028;-80
2021/12/07 08:03:25;;;;;;;20.17;3.27;;;1.90;99.90;;;;;;6168184;23;20025;-80
2021/12/07 08:05:51;;;;;;;13.83;2.70;;;1.90;99.90;;;;;;6164796;23;20021;-80
2021/12/07 08:08:16;;;;;;;14.87;3.07;;;1.90;99.90;;;;;;6192278;23;20013;-80
2021/12/07 08:10:42;;;;;;;19.67;3.37;;;1.90;99.90;;;;;;6168065;23;20271;-80
2021/12/07 08:13:08;;;;;;;14.47;3.10;;;1.90;99.90;;;;;;6192326;23;20009;-80
2021/12/07 08:15:39;;;;;;;17.35;2.70;;;1.90;99.90;;;;;;6168961;23;20023;-80
2021/12/07 08:18:06;;;;;;;23.45;3.45;;;1.90;99.90;;;;;;6194528;23;20694;-80
2021/12/07 08:20:32;;;;;;;13.27;3.67;;;1.90;99.90;;;;;;6193428;23;20025;-80
2021/12/07 08:22:58;;;;;;;17.80;3.05;;;1.90;99.90;;;;;;6167288;23;20031;-80
2021/12/07 08:25:24;;;;;;;16.70;3.30;;;1.90;99.90;;;;;;6166170;23;20013;-80
2021/12/07 08:27:50;;;;;;;13.82;3.50;;;1.80;99.90;;;;;;6167210;23;20358;-80
2021/12/07 08:30:17;;;;;;;18.80;3.47;;;1.90;99.90;;;;;;6167202;23;20017;-80
2021/12/07 08:32:46;;;;;;;19.13;4.05;;;2.00;99.90;;;;;;6166548;23;20132;-80
2021/12/07 08:35:17;;;;;;;17.50;4.10;;;2.00;99.90;;;;;;6165594;23;20009;-80
2021/12/07 08:37:44;;;;;;;19.38;3.33;;;2.10;99.90;;;;;;6164781;23;20013;-80
2021/12/07 08:40:11;;;;;;;17.42;3.83;;;2.30;99.90;;;;;;6164942;23;20052;-80
2021/12/07 08:42:37;;;;;;;18.23;4.00;;;2.50;99.90;;;;;;6192432;23;20017;-80
2021/12/07 08:45:07;;;;;;;17.20;3.70;;;2.50;99.90;;;;;;6167239;23;20021;-80
2021/12/07 08:47:34;;;;;;;16.50;4.22;;;2.50;99.90;;;;;;6168944;23;20024;-80
2021/12/07 08:50:03;;;;;;;17.27;3.80;;;2.60;99.90;;;;;;6168902;23;20385;-80
2021/12/07 08:52:29;;;;;;;15.60;2.92;;;2.60;99.90;;;;;;6167516;23;20401;-80
2021/12/07 09:00:15;;;;;;;16.05;3.53;;;2.60;99.90;;;;;;6171468;23;20017;-80
2021/12/07 09:02:40;;;;;;;14.57;3.58;;;2.60;99.90;;;;;;6168928;23;20079;-80
2021/12/07 09:05:07;;;;;;;17.13;4.03;;;2.60;99.90;;;;;;6145413;23;20025;-80
2021/12/07 09:07:33;;;;;;;14.35;3.00;;;2.60;99.90;;;;;;6168105;23;20052;-80
2021/12/07 09:09:58;;;;;;;15.80;3.97;;;2.70;99.90;;;;;;6168359;23;20338;-80
2021/12/07 09:12:24;;;;;;;16.70;3.60;;;2.70;99.90;;;;;;6192670;23;20020;-80
2021/12/07 09:14:53;;;;;;;15.53;3.70;;;2.70;99.90;;;;;;6163933;23;20466;-80
2021/12/07 09:17:19;;;;;;;16.95;3.92;;;2.70;99.90;;;;;;6142095;23;20013;-80
2021/12/07 09:19:45;;;;;;;17.85;3.83;;;2.70;99.90;;;;;;6165045;23;20017;-80
2021/12/07 09:22:11;;;;;;;14.53;3.83;;;2.80;99.90;;;;;;6162287;23;20013;-80
2021/12/07 09:24:36;;;;;;;16.97;3.83;;;2.90;99.90;;;;;;6166470;23;20017;-80
2021/12/07 09:27:03;;;;;;;13.33;4.20;;;2.90;99.90;;;;;;6165019;23;20446;-80
2021/12/07 09:29:29;;;;;;;19.10;4.05;;;3.00;99.90;;;;;;6166306;23;20017;-80
2021/12/07 09:31:56;;;;;;;14.43;3.45;;;3.00;99.90;;;;;;6189152;23;20028;-81
2021/12/07 09:34:22;;;;;;;17.70;3.85;;;3.10;99.90;;;;;;6165586;23;20017;-80
2021/12/07 09:36:47;;;;;;;16.07;4.00;;;3.10;99.90;;;;;;6191295;23;20016;-80
2021/12/07 09:39:16;;;;;;;15.30;3.73;;;3.10;99.90;;;;;;6166902;23;20017;-80
2021/12/07 09:41:42;;;;;;;16.08;3.95;;;3.20;99.90;;;;;;6193422;23;20349;-80
2021/12/07 09:44:08;;;;;;;17.63;4.22;;;3.10;99.90;;;;;;6167151;23;20013;-80
2021/12/07 09:46:35;;;;;;;16.95;3.90;;;3.10;99.90;;;;;;6165978;23;20040;-80
2021/12/07 09:49:02;;;;;;;17.05;4.53;;;3.10;99.90;;;;;;6168024;23;20047;-80
2021/12/07 09:51:28;;;;;;;17.85;4.63;;;3.10;99.90;;;;;;6168728;23;20515;-80
2021/12/07 09:53:56;;;;;;;11.13;3.55;;;3.10;99.90;;;;;;6167126;23;20096;-80
2021/12/07 09:56:22;;;;;;;13.00;3.72;;;3.10;99.90;;;;;;6168236;23;20389;-80
2021/12/07 09:58:50;;;;;;;12.57;4.03;;;3.10;99.90;;;;;;6169336;23;20013;-80
2021/12/07 10:01:17;;;;;;;19.23;4.07;;;3.20;99.90;;;;;;6195407;23;20469;-80
2021/12/07 10:03:43;;;;;;;16.40;4.25;;;3.20;99.90;;;;;;6170818;23;20024;-80
2021/12/07 10:06:09;;;;;;;13.82;3.50;;;3.20;99.90;;;;;;6194324;23;20048;-80
2021/12/07 10:08:36;;;;;;;9.85;4.03;;;3.20;99.90;;;;;;6168134;23;20021;-80
2021/12/07 10:11:04;;;;;;;19.50;3.88;;;3.30;99.90;;;;;;6193721;23;20023;-80
2021/12/07 10:13:31;;;;;;;15.57;3.72;;;3.30;99.90;;;;;;6194134;23;20017;-80
2021/12/07 10:15:59;;;;;;;19.05;3.40;;;3.40;99.90;;;;;;6146548;23;20036;-80
2021/12/07 10:18:27;;;;;;;20.05;3.30;;;3.50;99.90;;;;;;6195452;23;20024;-80
2021/12/07 10:21:14;;;;;;;15.57;3.72;;;3.60;99.90;;;;;;6195080;23;20020;-80
2021/12/07 10:23:50;;;;;;;12.23;2.85;;;3.60;99.90;;;;;;6175241;23;20139;-80
2021/12/07 10:26:17;;;;;;;14.50;3.40;;;3.70;99.90;;;;;;6192053;23;20056;-80
2021/12/07 10:28:55;;;;;;;14.45;3.85;;;3.70;99.90;;;;;;6189784;23;20017;-80
2021/12/07 10:31:35;;;;;;;14.18;3.38;;;3.80;99.90;;;;;;6191606;23;20047;-80
2021/12/07 10:34:08;;;;;;;12.73;3.65;;;3.90;99.90;;;;;;6191056;23;20003;-80
2021/12/07 10:36:45;;;;;;;16.23;3.88;;;4.00;99.90;;;;;;6189231;23;20012;-80
2021/12/07 10:39:20;;;;;;;13.98;3.25;;;4.00;99.90;;;;;;6188455;23;20072;-80
2021/12/07 10:41:51;;;;;;;;;;;4.20;99.90;;;;;;6189939;23;20062;-80
2021/12/07 10:44:22;;;;;;;16.73;3.10;;;4.30;99.90;;;;;;6192958;23;19939;-80
2021/12/07 10:46:59;;;;;;;14.60;3.65;;;4.40;99.90;;;;;;6167335;23;20019;-80
2021/12/07 10:49:37;;;;;;;16.55;3.80;;;4.50;99.90;;;;;;6189892;23;20020;-80
2021/12/07 10:52:12;;;;;;;11.98;3.35;;;4.60;99.90;;;;;;6192701;23;19997;-81
2021/12/07 10:55:01;;;;;;;14.15;3.33;;;4.60;99.90;;;;;;6193426;23;20036;-81
2021/12/07 10:57:32;;;;;;;10.70;2.80;;;4.70;99.90;;;;;;6193487;23;20084;-80
2021/12/07 11:00:15;;;;;;;14.70;3.05;;;4.70;99.90;;;;;;6168977;23;20060;-80
2021/12/07 11:02:45;;;;;;;17.48;3.92;;;4.80;99.90;;;;;;6168134;23;20021;-81
2021/12/07 11:05:17;;;;;;;15.00;3.40;;;4.80;99.90;;;;;;6168345;23;20021;-80
2021/12/07 11:07:43;;;;;;;16.52;3.67;;;4.90;99.90;;;;;;6170364;23;20096;-79
2021/12/07 11:10:28;;;;;;;19.33;3.87;;;5.00;99.90;;;;;;6169984;23;20013;-80
2021/12/07 11:13:06;;;;;;;15.40;2.92;;;4.90;99.90;;;;;;6169755;23;20037;-80
2021/12/07 11:15:34;;;;;;;20.25;3.97;;;4.90;99.90;;;;;;6166402;23;20013;-80
2021/12/07 11:18:05;;;;;;;18.95;3.38;;;4.90;99.90;;;;;;6190527;23;20045;-80
2021/12/07 11:20:32;;;;;;;16.02;3.42;;;4.90;99.90;;;;;;6164424;23;20063;-80
2021/12/07 11:23:17;;;;;;;10.38;2.55;;;5.00;99.90;;;;;;6166069;23;20008;-80
2021/12/07 11:31:49;;;;;;;11.50;2.88;;;5.10;99.90;;;;;;6189869;23;20021;-80
2021/12/07 11:34:17;;;;;;;12.93;2.65;;;5.30;99.90;;;;;;6189210;23;20013;-80
2021/12/07 11:36:47;;;;;;;13.88;2.90;;;5.30;99.90;;;;;;6189410;23;20017;-80
2021/12/07 11:39:19;;;;;;;15.23;2.60;;;5.40;99.90;;;;;;6189376;23;20096;-80
2021/12/07 11:41:48;;;;;;;11.25;2.40;;;5.40;99.90;;;;;;6189227;23;20009;-80
2021/12/07 11:44:13;;;;;;;11.20;2.58;;;5.50;99.90;;;;;;6163462;23;20013;-80
2021/12/07 11:46:47;;;;;;;8.77;2.30;;;5.60;99.90;;;;;;6165358;23;20520;-79
2021/12/07 11:49:13;;;;;;;11.98;2.75;;;5.70;99.90;;;;;;6192188;23;20493;-79
2021/12/07 11:51:41;;;;;;;10.73;2.47;;;5.70;99.90;;;;;;6191328;23;20091;-79
2021/12/07 11:54:07;;;;;;;10.93;2.90;;;5.80;99.90;;;;;;6165314;23;20016;-79
2021/12/07 11:56:34;;;;;;;10.45;2.33;;;5.80;99.90;;;;;;6166300;23;20088;-79
2021/12/07 11:59:00;;;;;;;10.40;2.30;;;5.90;99.90;;;;;;6190521;23;20493;-79
2021/12/07 12:01:26;;;;;;;11.55;2.45;;;5.80;99.90;;;;;;6168187;23;20095;-80
2021/12/07 12:03:52;;;;;;;13.20;2.70;;;5.80;99.90;;;;;;6140874;23;20052;-80
2021/12/07 12:06:18;;;;;;;9.23;2.10;;;5.80;99.90;;;;;;6168569;23;20021;-80
2021/12/07 12:08:44;;;;;;;11.25;2.40;;;5.80;99.90;;;;;;6145522;23;20563;-80
2021/12/07 12:11:39;;;;;;;13.27;3.03;;;5.70;99.90;;;;;;6171310;23;20021;-80
2021/12/07 12:14:16;;;;;;;12.77;3.17;;;5.70;99.90;;;;;;6198435;23;20073;-80
2021/12/07 12:17:22;;;;;;;12.48;3.13;;;5.70;99.90;;;;;;6188407;23;20036;-80
2021/12/07 12:20:23;;;;;;;11.77;2.65;;;5.60;99.90;;;;;;6173556;23;20074;-80
2021/12/07 12:22:56;;;;;;;9.65;2.67;;;5.60;99.90;;;;;;6173661;23;20568;-80
2021/12/07 12:25:23;;;;;;;12.52;3.60;;;5.50;99.90;;;;;;6172099;23;20095;-80
2021/12/07 12:27:51;;;;;;;15.63;4.00;;;5.50;99.90;;;;;;6175893;23;20044;-80
2021/12/07 12:30:42;;;;;;;18.23;3.95;;;5.50;99.90;;;;;;6175044;23;20016;-80
2021/12/07 12:33:11;;;;;;;20.02;4.65;;;5.50;99.90;;;;;;6198435;23;20017;-80
2021/12/07 12:35:40;;;;;;;16.23;4.30;;;5.40;99.90;;;;;;6197713;23;20261;-81
2021/12/07 12:38:27;;;;;;;16.45;5.00;;;5.40;99.90;;;;;;6196969;23;20017;-81
2021/12/07 12:41:03;;;;;;;17.98;4.78;;;5.40;99.90;;;;;;6198355;23;20036;-81
2021/12/07 12:43:41;;;;;;;17.60;4.70;;;5.30;99.90;;;;;;6199378;23;20040;-81
2021/12/07 12:46:11;;;;;;;17.83;5.50;;;5.30;99.90;;;;;;6198119;23;20020;-81
2021/12/07 12:48:37;;;;;;;11.90;4.38;;;5.20;99.90;;;;;;6199307;23;20017;-81
2021/12/07 12:51:04;;;;;;;19.40;5.37;;;5.20;99.90;;;;;;6174138;23;20024;-81
2021/12/07 12:53:34;;;;;;;16.48;5.13;;;5.20;99.90;;;;;;6198934;23;20044;-81
2021/12/07 12:56:07;;;;;;;17.73;4.95;;;5.20;99.90;;;;;;6173220;23;20393;-81
2021/12/07 12:58:37;;;;;;;18.35;5.30;;;5.20;99.90;;;;;;6199532;23;20051;-81
2021/12/07 13:01:31;;;;;;;19.20;5.00;;;5.20;99.90;;;;;;6196436;23;20016;-81
2021/12/07 13:04:02;;;;;;;11.80;4.53;;;5.20;99.90;;;;;;6193269;23;20363;-81
2021/12/07 13:06:37;;;;;;;16.60;5.03;;;5.20;99.90;;;;;;6193895;23;20024;-81
2021/12/07 13:09:22;;;;;;;14.83;4.30;;;5.20;99.90;;;;;;6194605;23;20091;-81
2021/12/07 13:12:05;;;;;;;14.10;4.10;;;5.20;99.90;;;;;;6195524;23;20025;-81
2021/12/07 13:14:57;;;;;;;15.30;4.20;;;5.20;99.90;;;;;;6197581;23;20013;-81
2021/12/07 13:17:32;;;;;;;16.15;4.00;;;5.20;99.90;;;;;;6196626;23;20021;-81
2021/12/07 13:20:20;;;;;;;11.57;4.13;;;5.20;99.90;;;;;;6197304;23;20024;-81
2021/12/07 13:23:12;;;;;;;16.77;4.03;;;5.10;99.90;;;;;;6196878;23;20023;-81
2021/12/07 13:25:58;;;;;;;16.58;4.10;;;5.10;99.90;;;;;;6195586;23;20013;-81
2021/12/07 13:28:31;;;;;;;12.48;3.70;;;5.10;99.90;;;;;;6147767;23;20017;-81
2021/12/07 13:31:11;;;;;;;11.75;4.63;;;5.00;99.90;;;;;;6171562;23;20017;-81
2021/12/07 13:34:03;;;;;;;17.70;4.68;;;5.00;99.90;;;;;;6196805;23;20013;-81
2021/12/07 13:36:42;;;;;;;18.77;4.50;;;5.00;99.90;;;;;;6169107;23;20013;-81
2021/12/07 13:39:14;;;;;;;13.93;4.00;;;5.00;99.90;;;;;;6195937;23;20065;-81
2021/12/07 13:41:49;;;;;;;15.38;4.18;;;4.90;99.90;;;;;;6196780;23;20051;-81
2021/12/07 13:44:16;;;;;;;16.02;4.85;;;4.90;99.90;;;;;;6197416;23;20312;-81
2021/12/07 13:46:42;;;;;;;13.88;4.45;;;4.90;99.90;;;;;;6172728;23;20473;-81
2021/12/07 13:49:11;;;;;;;14.98;4.57;;;4.80;99.90;;;;;;6172365;23;20438;-81
2021/12/07 13:51:38;;;;;;;15.48;4.30;;;4.80;99.90;;;;;;6199435;23;20048;-81
2021/12/07 13:54:05;;;;;;;14.80;4.25;;;4.80;99.90;;;;;;6172737;23;20052;-81
2021/12/07 13:56:39;;;;;;;16.73;4.40;;;4.70;99.90;;;;;;6198598;23;20024;-81
2021/12/07 13:59:18;;;;;;;14.13;4.40;;;4.70;99.90;;;;;;6148040;23;20843;-81
2021/12/07 14:01:50;;;;;;;17.50;5.30;;;4.60;99.90;;;;;;6193594;23;20071;-81
2021/12/07 14:04:16;;;;;;;13.45;4.50;;;4.60;99.90;;;;;;6172248;23;20028;-81
2021/12/07 14:06:47;;;;;;;15.33;4.60;;;4.50;99.90;;;;;;6196994;23;20013;-81
2021/12/07 14:09:13;;;;;;;16.80;5.07;;;4.50;99.90;;;;;;6194984;23;20244;-82
2021/12/07 14:11:39;;;;;;;14.90;4.23;;;4.40;99.90;;;;;;6198080;23;20030;-81
2021/12/07 14:14:15;;;;;;;20.73;4.97;;;4.40;99.90;;;;;;6197993;23;20020;-81
2021/12/07 14:16:42;;;;;;;16.95;5.43;;;4.30;99.90;;;;;;6198488;23;20424;-81
2021/12/07 14:19:08;;;;;;;20.48;5.70;;;4.30;99.90;;;;;;6175349;23;20013;-81
2021/12/07 14:21:34;;;;;;;21.73;6.00;;;4.30;99.90;;;;;;6199256;23;20338;-81
2021/12/07 14:24:05;;;;;;;25.98;7.53;;;4.20;99.90;;;;;;6172324;23;20059;-81
2021/12/07 14:26:36;;;;;;;21.55;6.65;;;4.20;99.90;;;;;;6175094;23;20017;-81
2021/12/07 14:29:07;;;;;;;21.45;6.15;;;4.10;99.90;;;;;;6197620;23;20012;-81
2021/12/07 14:31:48;;;;;;;19.90;5.60;;;4.10;99.90;;;;;;6194356;23;20013;-81
2021/12/07 14:34:22;;;;;;;17.05;5.75;;;4.10;99.90;;;;;;6193136;23;20067;-82